Time;durP1;ratioP1;P1;durP2;ratioP2;P2;SDS_P1;SDS_P2;PMS_P1;PMS_P2;Temp;Humidity;BMP_temperature;BMP_pressure;BME280_temperature;BME280_humidity;BME280_pressure;Samples;Min_cycle;Max_cycle;Signal;HPM_P1;HPM_P2
2022/04/10 00:00:40;;;;;;;4.18;0.98;;;;;;;2.75;90.82;101466.94;5016362;28;20554;-77
2022/04/10 00:03:05;;;;;;;5.63;1.30;;;;;;;2.73;90.14;101460.13;5015144;28;20045;-78
2022/04/10 00:05:31;;;;;;;8.75;1.83;;;;;;;2.68;90.96;101463.81;5016583;28;20029;-77
2022/04/10 00:07:57;;;;;;;9.88;1.10;;;;;;;2.70;91.94;101474.16;5018403;28;20044;-78
2022/04/10 00:10:23;;;;;;;8.77;2.63;;;;;;;2.69;91.75;101477.69;5018819;28;20041;-77
2022/04/10 00:12:48;;;;;;;6.30;1.25;;;;;;;2.69;92.83;101477.69;5018476;28;20030;-77
2022/04/10 00:15:14;;;;;;;7.28;2.40;;;;;;;2.53;93.00;101450.78;5014660;28;20070;-77
2022/04/10 00:17:40;;;;;;;11.73;2.20;;;;;;;2.67;93.79;101474.31;5015989;28;20111;-77
2022/04/10 00:20:06;;;;;;;10.63;1.40;;;;;;;2.49;93.15;101454.50;5018293;28;20029;-79
2022/04/10 00:22:39;;;;;;;7.50;2.00;;;;;;;2.61;94.39;101475.50;5015212;28;20556;-77
2022/04/10 00:25:07;;;;;;;14.32;2.35;;;;;;;2.57;93.81;101478.34;5017361;28;20025;-77
2022/04/10 00:27:33;;;;;;;5.18;1.80;;;;;;;2.60;93.80;101478.19;5019375;28;20060;-77
2022/04/10 00:29:59;;;;;;;6.70;1.80;;;;;;;2.61;94.00;101472.03;5019000;28;20033;-77
2022/04/10 00:32:27;;;;;;;10.00;2.15;;;;;;;2.57;93.17;101467.91;5018674;28;20033;-79
2022/04/10 00:34:53;;;;;;;8.48;1.83;;;;;;;2.64;93.12;101479.72;5033849;28;20034;-78
2022/04/10 00:37:19;;;;;;;9.43;1.55;;;;;;;2.57;92.68;101470.53;5017898;28;20040;-77
2022/04/10 00:39:44;;;;;;;16.70;2.47;;;;;;;2.69;93.04;101488.09;5004593;28;20022;-76
2022/04/10 00:42:09;;;;;;;7.43;1.60;;;;;;;2.71;92.82;101481.06;5016689;28;20057;-76
2022/04/10 00:44:35;;;;;;;9.43;1.80;;;;;;;2.68;92.33;101479.47;5017247;28;20037;-78
2022/04/10 00:47:01;;;;;;;14.30;2.05;;;;;;;2.71;92.16;101490.66;5017026;28;20478;-76
2022/04/10 00:49:26;;;;;;;12.20;1.70;;;;;;;2.70;91.84;101487.19;5002380;28;20065;-78
2022/04/10 00:51:54;;;;;;;8.75;2.17;;;;;;;2.65;91.21;101474.41;5016181;28;20037;-79
2022/04/10 00:54:24;;;;;;;7.32;1.42;;;;;;;2.65;91.26;101478.78;5018712;28;20021;-78
2022/04/10 00:56:50;;;;;;;6.22;1.50;;;;;;;2.67;91.76;101489.97;5016916;28;20030;-78
2022/04/10 00:59:16;;;;;;;15.90;2.05;;;;;;;2.66;92.47;101489.13;5017380;28;20029;-77
2022/04/10 01:01:45;;;;;;;4.07;1.35;;;;;;;2.69;92.97;101485.50;5023614;28;20030;-74
2022/04/10 01:04:13;;;;;;;10.00;2.85;;;;;;;2.69;92.62;101495.94;5015383;28;20026;-73
2022/04/10 01:06:38;;;;;;;14.05;2.15;;;;;;;2.61;92.66;101469.44;5024101;28;20029;-73
2022/04/10 01:09:04;;;;;;;11.88;2.22;;;;;;;2.66;93.40;101488.28;5017545;28;20076;-75
2022/04/10 01:11:30;;;;;;;7.53;1.38;;;;;;;2.61;93.02;101480.72;5003709;28;20048;-74
2022/04/10 01:13:56;;;;;;;5.72;1.75;;;;;;;2.63;92.87;101499.69;5016512;28;20021;-74
2022/04/10 01:16:22;;;;;;;8.88;1.80;;;;;;;2.60;92.77;101488.63;5018221;28;20045;-74
2022/04/10 01:18:49;;;;;;;18.90;2.72;;;;;;;2.67;92.77;101496.00;5016203;28;20095;-74
2022/04/10 01:21:27;;;;;;;7.70;2.13;;;;;;;2.69;92.97;101506.34;5017133;28;20026;-74
2022/04/10 01:23:54;;;;;;;5.05;1.75;;;;;;;2.67;93.16;101495.16;5017109;28;20025;-74
2022/04/10 01:26:21;;;;;;;8.65;1.70;;;;;;;2.77;93.22;101509.41;5019158;28;20034;-73
2022/04/10 01:29:03;;;;;;;5.65;1.15;;;;;;;2.75;92.97;101503.41;5018751;28;20477;-74
2022/04/10 01:31:31;;;;;;;9.27;2.10;;;;;;;2.70;92.47;101499.38;5019600;28;20036;-74
2022/04/10 01:33:59;;;;;;;10.18;2.33;;;;;;;2.73;92.96;101499.22;4999031;28;20057;-74
2022/04/10 01:36:29;;;;;;;11.80;2.08;;;;;;;2.73;92.61;101507.88;5018065;28;20030;-74
2022/04/10 01:38:57;;;;;;;8.35;1.63;;;;;;;2.63;91.65;101504.06;5019465;28;20025;-75
2022/04/10 01:41:25;;;;;;;9.63;2.28;;;;;;;2.68;90.62;101517.72;5001780;28;20036;-75
2022/04/10 01:43:51;;;;;;;6.57;1.95;;;;;;;2.68;90.24;101512.50;5015744;28;20025;-74
2022/04/10 01:46:17;;;;;;;5.88;1.48;;;;;;;2.50;90.93;101485.66;5019619;28;20067;-74
2022/04/10 01:48:43;;;;;;;5.90;1.52;;;;;;;2.68;91.29;101523.78;5020683;28;20025;-74
2022/04/10 01:51:09;;;;;;;15.60;1.90;;;;;;;2.71;92.17;101512.34;5018575;28;20018;-74
2022/04/10 01:53:35;;;;;;;5.50;1.30;;;;;;;2.73;93.04;101526.13;5016407;28;20394;-74
2022/04/10 01:56:02;;;;;;;2.50;1.30;;;;;;;2.76;92.55;101525.94;5014816;28;20030;-74
2022/04/10 01:58:28;;;;;;;5.35;2.00;;;;;;;2.75;92.94;101526.88;4999135;28;20077;-74
2022/04/10 02:00:54;;;;;;;7.40;1.65;;;;;;;2.80;93.63;101527.47;5016759;28;20033;-74
2022/04/10 02:03:19;;;;;;;6.30;2.00;;;;;;;2.66;94.00;101488.28;5019475;28;20485;-74
2022/04/10 02:05:44;;;;;;;12.00;1.85;;;;;;;2.84;93.50;101528.97;5004612;28;20149;-74
2022/04/10 02:08:10;;;;;;;7.57;2.00;;;;;;;2.88;94.66;101524.47;5020623;28;20041;-74
2022/04/10 02:10:36;;;;;;;7.32;1.20;;;;;;;2.81;94.29;101513.53;5020122;28;20034;-74
2022/04/10 02:13:01;;;;;;;6.43;1.40;;;;;;;2.76;94.35;101502.47;5020210;28;20033;-75
2022/04/10 02:15:27;;;;;;;8.02;2.00;;;;;;;2.95;95.42;101524.97;5006863;28;20496;-75
2022/04/10 02:17:52;;;;;;;5.22;1.83;;;;;;;2.97;94.69;101523.09;5020455;28;20477;-74
2022/04/10 02:20:17;;;;;;;11.10;1.92;;;;;;;2.97;95.47;101528.31;5026252;28;20025;-74
2022/04/10 02:22:43;;;;;;;7.80;1.52;;;;;;;2.74;94.98;101517.38;5018611;28;20057;-74
2022/04/10 02:25:09;;;;;;;9.63;1.92;;;;;;;2.84;95.28;101538.56;5005371;28;20033;-74
2022/04/10 02:27:34;;;;;;;5.63;1.52;;;;;;;2.83;94.95;101531.66;5018202;28;20118;-74
2022/04/10 02:29:59;;;;;;;4.03;1.15;;;;;;;2.89;94.41;101520.91;5017021;28;20083;-74
2022/04/10 02:32:25;;;;;;;4.72;1.27;;;;;;;2.97;94.92;101544.81;5014233;28;20036;-74
2022/04/10 02:34:50;;;;;;;10.35;2.28;;;;;;;2.71;94.24;101514.94;5002485;28;20308;-74
2022/04/10 02:37:16;;;;;;;2.30;0.88;;;;;;;2.74;94.30;101527.78;5018980;28;20155;-74
2022/04/10 02:39:41;;;;;;;6.72;1.02;;;;;;;2.80;94.47;101547.47;4984679;28;20030;-74
2022/04/10 02:42:07;;;;;;;6.75;1.73;;;;;;;2.74;94.54;101537.38;5028720;28;20029;-75
2022/04/10 02:44:32;;;;;;;5.35;1.38;;;;;;;2.74;94.59;101542.59;4999212;28;20612;-73
2022/04/10 02:46:57;;;;;;;4.07;0.95;;;;;;;2.61;95.45;101521.56;5017538;28;20038;-74
2022/04/10 02:49:23;;;;;;;4.10;1.10;;;;;;;2.68;95.85;101533.34;4998585;28;20065;-73
2022/04/10 02:51:49;;;;;;;8.23;1.45;;;;;;;2.54;95.76;101522.81;5016952;28;20029;-74
2022/04/10 02:54:16;;;;;;;6.43;1.73;;;;;;;2.46;95.46;101518.88;5015093;28;20034;-75
2022/04/10 02:56:42;;;;;;;10.63;1.73;;;;;;;2.62;95.42;101554.53;5016392;28;20076;-75
2022/04/10 02:59:08;;;;;;;6.05;1.05;;;;;;;2.67;96.08;101549.91;5000167;28;20101;-74
2022/04/10 03:01:34;;;;;;;5.10;1.30;;;;;;;2.62;95.70;101544.09;5020494;28;20041;-75
2022/04/10 03:03:59;;;;;;;9.85;1.55;;;;;;;2.76;95.66;101566.81;5015191;28;20029;-74
2022/04/10 03:06:24;;;;;;;6.35;1.40;;;;;;;2.74;96.60;101569.50;5020491;28;20118;-75
2022/04/10 03:08:50;;;;;;;8.55;2.00;;;;;;;2.72;96.36;101566.13;5018941;28;20405;-75
2022/04/10 03:11:16;;;;;;;8.55;1.45;;;;;;;2.55;96.39;101545.31;5002729;28;20033;-75
2022/04/10 03:13:41;;;;;;;9.32;1.40;;;;;;;2.62;95.80;101570.16;5003323;28;20222;-74
2022/04/10 03:16:07;;;;;;;9.18;1.50;;;;;;;2.56;95.51;101573.09;5020182;28;20537;-75
2022/04/10 03:18:32;;;;;;;16.40;2.08;;;;;;;2.46;95.55;101564.91;5021736;28;20113;-76
2022/04/10 03:20:57;;;;;;;9.27;1.80;;;;;;;2.45;96.26;101577.09;5021874;28;20482;-75
2022/04/10 03:23:23;;;;;;;13.60;1.73;;;;;;;2.33;96.27;101556.91;5020054;28;20029;-76
2022/04/10 03:25:49;;;;;;;13.88;2.08;;;;;;;2.39;95.58;101580.00;5002712;28;20029;-75
2022/04/10 03:28:14;;;;;;;8.32;1.35;;;;;;;2.33;96.05;101574.28;5022597;28;20037;-75
2022/04/10 03:30:40;;;;;;;4.47;0.90;;;;;;;2.28;96.01;101569.31;5015901;28;20501;-75
2022/04/10 03:33:05;;;;;;;10.85;2.05;;;;;;;2.34;95.97;101583.78;5015120;28;20065;-75
2022/04/10 03:35:31;;;;;;;3.10;1.02;;;;;;;2.29;96.00;101578.81;4999887;28;20021;-74
2022/04/10 03:37:56;;;;;;;2.55;0.90;;;;;;;2.35;95.95;101583.72;5017700;28;20034;-74
2022/04/10 03:40:21;;;;;;;4.38;0.90;;;;;;;2.30;95.81;101572.66;5019165;28;20030;-75
2022/04/10 03:42:47;;;;;;;5.45;1.10;;;;;;;2.47;96.04;101583.06;5005553;28;20444;-75
2022/04/10 03:45:13;;;;;;;5.13;0.98;;;;;;;2.50;96.23;101587.25;5023715;28;20021;-75
2022/04/10 03:47:38;;;;;;;5.75;1.00;;;;;;;2.46;96.33;101570.09;5019586;28;20112;-75
2022/04/10 03:50:05;;;;;;;6.47;1.15;;;;;;;2.50;96.53;101570.81;5015106;28;20329;-74
2022/04/10 03:52:30;;;;;;;6.03;1.08;;;;;;;2.54;96.86;101577.53;5004031;28;20037;-74
2022/04/10 03:54:56;;;;;;;7.72;1.33;;;;;;;2.60;97.00;101591.09;5019190;28;20076;-74
2022/04/10 03:57:21;;;;;;;7.10;1.60;;;;;;;2.42;96.78;101568.59;5023039;28;20092;-74
2022/04/10 03:59:47;;;;;;;4.65;1.10;;;;;;;2.40;97.11;101576.50;5004190;28;20034;-74
2022/04/10 04:02:16;;;;;;;7.57;1.23;;;;;;;2.35;97.29;101588.94;4990831;28;20057;-76
2022/04/10 04:04:42;;;;;;;4.20;1.38;;;;;;;2.35;97.56;101598.47;5017783;28;20080;-75
2022/04/10 04:07:08;;;;;;;8.20;1.70;;;;;;;2.34;97.95;101608.06;5025813;28;20413;-75
2022/04/10 04:09:33;;;;;;;4.05;1.13;;;;;;;2.35;97.16;101627.13;5016041;28;20033;-75
2022/04/10 04:11:59;;;;;;;3.17;1.33;;;;;;;2.40;97.54;101633.81;5019488;28;20037;-75
2022/04/10 04:14:24;;;;;;;4.78;1.25;;;;;;;2.47;97.53;101636.94;5017267;28;20029;-76
2022/04/10 04:16:49;;;;;;;5.50;0.95;;;;;;;2.41;97.65;101614.63;5023606;28;20444;-74
2022/04/10 04:19:15;;;;;;;2.10;0.68;;;;;;;2.49;97.82;101642.09;5001155;28;20026;-74
2022/04/10 04:21:40;;;;;;;6.35;0.80;;;;;;;2.47;97.77;101645.59;5015692;28;20445;-75
2022/04/10 04:24:06;;;;;;;3.08;0.90;;;;;;;2.45;97.16;101641.38;5022416;28;20033;-75
2022/04/10 04:26:31;;;;;;;6.93;1.00;;;;;;;2.39;97.85;101629.50;5002833;28;20044;-75
2022/04/10 04:28:56;;;;;;;5.78;1.80;;;;;;;2.39;97.56;101626.91;4994947;28;20034;-74
2022/04/10 04:31:22;;;;;;;5.38;1.33;;;;;;;2.41;98.35;101640.69;5017052;28;20527;-74
2022/04/10 04:33:47;;;;;;;1.70;0.85;;;;;;;2.41;98.34;101634.66;5011492;28;20487;-75
2022/04/10 04:36:13;;;;;;;3.40;0.73;;;;;;;2.39;97.77;101636.47;5017681;28;20041;-74
2022/04/10 04:38:38;;;;;;;1.50;0.50;;;;;;;2.38;97.50;101638.25;5004044;28;20347;-74
2022/04/10 04:41:03;;;;;;;7.85;0.93;;;;;;;2.36;96.85;101640.09;5024655;28;20026;-75
2022/04/10 04:43:29;;;;;;;8.10;1.17;;;;;;;2.15;96.41;101620.31;5017209;28;20057;-75
2022/04/10 04:45:54;;;;;;;2.60;0.60;;;;;;;2.20;96.51;101637.44;5004147;28;20159;-74
2022/04/10 04:48:20;;;;;;;2.20;0.90;;;;;;;2.20;95.16;101652.19;5021250;28;20496;-74
2022/04/10 04:50:47;;;;;;;2.83;0.70;;;;;;;2.09;95.28;101638.84;5019461;28;20033;-74
2022/04/10 04:53:12;;;;;;;2.90;0.70;;;;;;;2.13;95.58;101646.44;5010370;28;20127;-74
2022/04/10 04:55:37;;;;;;;3.97;1.42;;;;;;;2.14;95.30;101657.72;5014650;28;20061;-75
2022/04/10 04:58:03;;;;;;;3.58;0.70;;;;;;;1.96;94.93;101634.28;5011635;28;20029;-76
2022/04/10 05:00:28;;;;;;;2.60;0.60;;;;;;;1.98;94.88;101645.44;4993913;28;20402;-76
2022/04/10 05:02:54;;;;;;;5.15;1.05;;;;;;;2.06;94.59;101665.91;5019273;28;20029;-77
2022/04/10 05:05:20;;;;;;;2.05;0.65;;;;;;;1.99;95.08;101660.16;5016151;28;20485;-78
2022/04/10 05:07:45;;;;;;;2.15;0.68;;;;;;;2.06;95.62;101669.34;5008495;28;20100;-77
2022/04/10 05:10:11;;;;;;;4.82;0.70;;;;;;;1.96;95.95;101662.91;5014260;28;20437;-77
2022/04/10 05:12:36;;;;;;;6.72;1.02;;;;;;;1.99;96.01;101665.34;5000783;28;20045;-78
2022/04/10 05:15:04;;;;;;;2.20;0.70;;;;;;;1.81;95.46;101642.81;5009093;28;20037;-77
2022/04/10 05:17:30;;;;;;;7.13;1.00;;;;;;;2.02;96.58;101690.38;4997167;28;20037;-77
2022/04/10 05:19:55;;;;;;;6.32;0.73;;;;;;;1.96;95.89;101669.84;5007432;28;20088;-77
2022/04/10 05:22:21;;;;;;;2.15;1.15;;;;;;;2.00;96.13;101674.88;4990921;28;20036;-78
2022/04/10 05:24:46;;;;;;;5.15;1.23;;;;;;;2.19;97.11;101698.22;5011814;28;20125;-77
2022/04/10 05:27:11;;;;;;;4.43;1.00;;;;;;;2.26;96.78;101701.38;5013316;28;20034;-77
2022/04/10 05:29:37;;;;;;;6.60;0.98;;;;;;;2.25;97.10;101689.28;5024336;28;20477;-77
2022/04/10 05:32:03;;;;;;;5.07;0.70;;;;;;;2.28;96.31;101691.72;5010314;28;20061;-77
2022/04/10 05:34:28;;;;;;;3.55;1.00;;;;;;;2.49;97.02;101702.00;5008162;28;20130;-77
2022/04/10 05:36:53;;;;;;;6.65;1.30;;;;;;;2.44;96.83;101682.25;5023478;28;20034;-77
2022/04/10 05:39:19;;;;;;;5.60;0.93;;;;;;;2.66;96.70;101700.25;5007630;28;20421;-77
2022/04/10 05:41:44;;;;;;;4.70;0.95;;;;;;;2.73;95.94;101703.38;5017132;28;20117;-78
2022/04/10 05:44:09;;;;;;;5.95;1.00;;;;;;;2.78;95.83;101700.53;5021818;28;20148;-77
2022/04/10 05:46:38;;;;;;;2.22;1.15;;;;;;;2.86;95.07;101706.19;5019306;28;20030;-77
2022/04/10 05:49:05;;;;;;;5.72;0.82;;;;;;;2.86;94.92;101704.44;5017681;28;20106;-78
2022/04/10 05:51:31;;;;;;;3.90;1.10;;;;;;;2.73;93.16;101687.72;5012659;28;20034;-77
2022/04/10 05:53:56;;;;;;;3.85;1.00;;;;;;;2.88;92.87;101717.41;5007113;28;20445;-77
2022/04/10 05:56:21;;;;;;;4.03;1.23;;;;;;;2.92;91.33;101721.53;5020952;28;20033;-77
2022/04/10 05:58:47;;;;;;;4.63;0.98;;;;;;;2.94;91.81;101713.59;5020395;28;20018;-77
2022/04/10 06:01:12;;;;;;;3.90;1.00;;;;;;;2.93;91.34;101717.16;5005069;28;20041;-77
2022/04/10 06:03:38;;;;;;;2.80;1.08;;;;;;;2.91;90.62;101691.16;5021245;28;20033;-77
2022/04/10 06:06:04;;;;;;;3.58;0.88;;;;;;;2.93;89.72;101693.69;4995555;28;20029;-77
2022/04/10 06:08:30;;;;;;;3.10;1.08;;;;;;;3.08;89.65;101730.22;5001476;28;20026;-77
2022/04/10 06:10:55;;;;;;;3.65;1.17;;;;;;;3.16;89.95;101747.25;5021711;28;20025;-77
2022/04/10 06:13:21;;;;;;;8.07;1.40;;;;;;;3.15;90.44;101746.41;5015203;28;20033;-76
2022/04/10 06:15:47;;;;;;;10.73;1.45;;;;;;;3.07;93.07;101772.03;5005440;28;20046;-77
2022/04/10 06:18:13;;;;;;;2.55;1.05;;;;;;;2.94;94.13;101769.22;5018996;28;20065;-77
2022/04/10 06:20:39;;;;;;;1.55;0.75;;;;;;;2.87;94.97;101762.63;4998421;28;20045;-77
2022/04/10 06:23:04;;;;;;;4.88;1.10;;;;;;;2.96;95.00;101753.50;5007622;28;20100;-78
2022/04/10 06:25:30;;;;;;;2.10;0.90;;;;;;;2.81;94.48;101722.09;5007743;28;20092;-77
2022/04/10 06:27:56;;;;;;;4.05;0.95;;;;;;;3.04;94.94;101753.94;5012685;28;20537;-77
2022/04/10 06:30:22;;;;;;;2.10;0.65;;;;;;;3.00;94.08;101748.03;5015794;28;20036;-77
2022/04/10 06:32:48;;;;;;;3.17;0.80;;;;;;;3.06;94.57;101759.94;5014403;28;20502;-77
2022/04/10 06:35:14;;;;;;;4.28;1.00;;;;;;;3.18;93.84;101761.91;5011723;28;20508;-77
2022/04/10 06:37:39;;;;;;;5.05;0.93;;;;;;;3.26;94.51;101762.34;5010880;28;20034;-77
2022/04/10 06:40:06;;;;;;;3.40;0.60;;;;;;;3.40;94.18;101760.78;5017742;28;20037;-78
2022/04/10 06:42:31;;;;;;;6.28;1.55;;;;;;;3.54;93.39;101765.25;5007423;28;20033;-78
2022/04/10 06:44:57;;;;;;;6.95;0.80;;;;;;;3.51;92.77;101745.41;5016364;28;20026;-78
2022/04/10 06:47:22;;;;;;;3.45;0.90;;;;;;;3.65;92.87;101750.69;5000880;28;20038;-77
2022/04/10 06:49:48;;;;;;;1.90;0.98;;;;;;;3.82;93.02;101767.22;5001328;28;20080;-75
2022/04/10 06:52:13;;;;;;;3.67;0.90;;;;;;;3.92;92.87;101765.81;5012390;28;20033;-75
2022/04/10 06:54:38;;;;;;;4.78;1.17;;;;;;;4.05;92.51;101764.22;5020803;28;20474;-77
2022/04/10 06:57:04;;;;;;;5.22;0.93;;;;;;;4.02;91.19;101753.91;4989832;28;20033;-75
2022/04/10 06:59:29;;;;;;;5.30;0.80;;;;;;;4.26;91.18;101771.75;4998468;28;20101;-76
2022/04/10 07:01:55;;;;;;;4.43;1.35;;;;;;;4.30;91.65;101752.38;5021864;28;20053;-75
2022/04/10 07:04:20;;;;;;;6.30;0.95;;;;;;;4.39;90.78;101749.22;5003272;28;20494;-75
2022/04/10 07:06:46;;;;;;;2.65;1.13;;;;;;;4.69;89.77;101785.00;4986458;28;20099;-75
2022/04/10 07:09:14;;;;;;;4.65;1.05;;;;;;;5.06;90.92;101775.81;5010498;28;20136;-75
2022/04/10 07:11:39;;;;;;;6.88;1.80;;;;;;;5.73;90.00;101755.16;5010067;28;20104;-76
2022/04/10 07:14:05;;;;;;;6.15;1.33;;;;;;;6.03;86.75;101769.06;5005410;28;20113;-75
2022/04/10 07:16:30;;;;;;;5.18;1.10;;;;;;;6.27;84.74;101798.97;5001892;28;20065;-75
2022/04/10 07:18:56;;;;;;;9.75;1.40;;;;;;;6.08;84.39;101809.75;4997295;28;20037;-76
2022/04/10 07:23:41;;;;;;;8.80;1.60;;;;;;;5.75;83.68;101792.56;5018190;28;20470;-75
2022/04/10 07:24:07;;;;;;;2.45;0.98;;;;;;;5.90;83.72;101816.97;5000395;28;20045;-75
2022/04/10 07:26:33;;;;;;;7.57;1.55;;;;;;;6.18;83.05;101805.63;5014264;28;20108;-75
2022/04/10 07:28:58;;;;;;;6.75;1.17;;;;;;;6.97;81.36;101803.13;5019950;28;20032;-75
2022/04/10 07:31:23;;;;;;;2.92;0.88;;;;;;;7.87;79.58;101813.59;4997779;28;20466;-75
2022/04/10 07:33:49;;;;;;;7.60;1.92;;;;;;;8.80;75.20;101814.72;5010765;28;20069;-75
2022/04/10 07:36:14;;;;;;;3.08;0.80;;;;;;;9.35;72.45;101809.66;4993909;28;20808;-76
2022/04/10 07:38:39;;;;;;;3.28;0.73;;;;;;;9.88;68.55;101811.69;4992953;28;20474;-75
2022/04/10 07:41:05;;;;;;;4.45;0.80;;;;;;;10.82;67.36;101819.94;5015558;28;20460;-75
2022/04/10 07:43:31;;;;;;;2.72;1.15;;;;;;;11.54;63.14;101840.31;5013961;28;20036;-77
2022/04/10 07:48:42;;;;;;;6.20;1.23;;;;;;;10.91;63.40;101819.22;5011243;28;20040;-75
2022/04/10 07:51:08;;;;;;;6.60;1.10;;;;;;;11.36;61.73;101847.97;4995899;28;20029;-75
2022/04/10 07:53:34;;;;;;;3.83;1.10;;;;;;;11.45;61.12;101831.34;5007845;28;20037;-77
2022/04/10 07:56:00;;;;;;;6.25;1.08;;;;;;;12.00;62.10;101848.69;5000410;28;20071;-75
2022/04/10 07:58:25;;;;;;;3.33;0.90;;;;;;;12.46;59.73;101861.34;5011068;28;20092;-75
2022/04/10 08:00:51;;;;;;;3.75;1.25;;;;;;;12.19;59.43;101846.09;5011518;28;20036;-74
2022/04/10 08:03:17;;;;;;;7.22;0.88;;;;;;;11.90;60.25;101857.44;5010383;28;20044;-74
2022/04/10 08:05:42;;;;;;;6.60;1.10;;;;;;;11.36;61.05;101857.72;5012351;28;20151;-74
2022/04/10 08:08:10;;;;;;;5.28;1.30;;;;;;;10.78;62.96;101853.72;5008931;28;20507;-74
2022/04/10 08:10:37;;;;;;;4.78;1.23;;;;;;;10.43;62.73;101859.22;4997284;28;20044;-74
2022/04/10 08:13:02;;;;;;;5.65;0.70;;;;;;;9.86;63.47;101856.66;5011549;28;20057;-74
2022/04/10 08:15:28;;;;;;;3.80;0.93;;;;;;;10.53;63.74;101865.44;4991480;28;20061;-75
2022/04/10 08:17:55;;;;;;;6.78;1.15;;;;;;;10.77;61.21;101867.03;5012295;28;20099;-74
2022/04/10 08:20:21;;;;;;;8.52;1.73;;;;;;;11.80;59.72;101853.91;5008875;28;20033;-74
2022/04/10 08:22:53;;;;;;;3.55;0.75;;;;;;;12.73;57.69;101879.19;5019384;28;20094;-75
2022/04/10 08:25:18;;;;;;;4.28;0.93;;;;;;;14.36;54.78;101882.53;5010024;28;20394;-75
2022/04/10 08:27:44;;;;;;;6.38;1.17;;;;;;;15.37;51.82;101876.09;5010419;28;20038;-76
2022/04/10 08:30:10;;;;;;;9.23;1.55;;;;;;;15.40;53.31;101873.16;5009058;28;20031;-75
2022/04/10 08:32:37;;;;;;;5.85;1.40;;;;;;;15.51;51.50;101888.84;5014510;28;20036;-76
2022/04/10 08:35:03;;;;;;;5.25;1.38;;;;;;;16.14;50.66;101893.00;5009762;28;20701;-76
2022/04/10 08:37:29;;;;;;;5.65;1.65;;;;;;;15.76;50.34;101868.53;4998292;28;20128;-76
2022/04/10 08:39:54;;;;;;;8.02;1.20;;;;;;;16.16;50.47;101879.53;5013252;28;20528;-76
2022/04/10 08:42:20;;;;;;;7.45;1.10;;;;;;;15.64;50.04;101901.72;5007910;28;20048;-77
2022/04/10 08:44:46;;;;;;;6.32;2.00;;;;;;;15.30;50.62;101902.50;5007865;28;20116;-76
2022/04/10 08:47:15;;;;;;;6.60;1.38;;;;;;;15.26;50.93;101897.66;5006195;28;20340;-76
2022/04/10 08:49:40;;;;;;;8.73;2.03;;;;;;;13.63;51.73;101905.50;5005000;28;20145;-76
2022/04/10 08:52:07;;;;;;;5.45;1.25;;;;;;;13.33;54.47;101910.03;5008882;28;20041;-76
2022/04/10 08:54:35;;;;;;;7.15;1.42;;;;;;;13.65;54.25;101909.66;5007615;28;20434;-75
2022/04/10 08:57:01;;;;;;;5.00;1.40;;;;;;;15.22;52.92;101897.97;5005678;28;20501;-75
2022/04/10 08:59:27;;;;;;;2.83;1.02;;;;;;;15.73;49.21;101905.31;5006062;28;20034;-75
2022/04/10 09:01:53;;;;;;;3.95;1.02;;;;;;;15.80;49.43;101909.00;4989099;28;20040;-75
2022/04/10 09:04:20;;;;;;;4.88;0.70;;;;;;;16.25;47.75;101903.38;5012519;28;20508;-75
2022/04/10 09:07:07;;;;;;;3.13;1.23;;;;;;;17.18;46.67;101898.84;5004739;28;20094;-75
2022/04/10 09:09:37;;;;;;;6.03;1.27;;;;;;;17.04;44.24;101916.34;5011434;28;20052;-75
2022/04/10 09:12:04;;;;;;;4.40;1.07;;;;;;;17.21;44.41;101915.34;5010725;28;20064;-75
2022/04/10 09:14:38;;;;;;;4.45;1.17;;;;;;;17.08;43.58;101919.53;5005551;28;20034;-75
2022/04/10 09:17:19;;;;;;;4.35;0.93;;;;;;;16.67;45.57;101929.09;5012194;28;20359;-74
2022/04/10 09:19:48;;;;;;;5.45;0.95;;;;;;;16.12;44.86;101918.13;5006668;28;20142;-74
2022/04/10 09:22:29;;;;;;;1.65;0.70;;;;;;;17.34;44.50;101933.53;5008448;28;20041;-74
2022/04/10 09:25:13;;;;;;;13.55;6.75;;;;;;;17.81;45.52;101947.94;5004493;28;20025;-75
2022/04/10 09:27:40;;;;;;;5.70;2.10;;;;;;;18.24;44.54;101933.31;5009300;28;20116;-75
2022/04/10 09:30:20;;;;;;;2.50;0.57;;;;;;;17.53;44.20;101916.31;5008385;28;20493;-75
2022/04/10 09:32:53;;;;;;;3.10;1.02;;;;;;;18.36;44.61;101943.63;5004559;28;20033;-75
2022/04/10 09:35:23;;;;;;;5.40;1.10;;;;;;;18.60;43.52;101937.31;5007459;28;20076;-75
2022/04/10 09:37:56;;;;;;;5.63;1.02;;;;;;;18.91;43.84;101934.63;5008656;28;20038;-75
2022/04/10 09:40:30;;;;;;;4.97;1.00;;;;;;;18.99;42.84;101945.25;5010261;28;20041;-75
2022/04/10 09:42:58;;;;;;;6.95;1.48;;;;;;;18.49;43.66;101947.38;5007995;28;20565;-75
2022/04/10 09:45:43;;;;;;;3.58;0.90;;;;;;;18.39;44.02;101952.09;5014190;28;20057;-75
2022/04/10 09:48:31;;;;;;;6.07;0.77;;;;;;;19.01;42.24;101927.19;5011601;28;20487;-75
2022/04/10 09:50:59;;;;;;;3.05;0.80;;;;;;;18.86;42.74;101943.19;5008688;28;20444;-76
2022/04/10 09:53:26;;;;;;;3.05;0.57;;;;;;;19.10;42.39;101938.66;5011185;28;20034;-75
2022/04/10 09:56:07;;;;;;;2.55;0.70;;;;;;;18.98;43.07;101927.53;5012897;28;20038;-75
2022/04/10 09:58:33;;;;;;;;;;;;;;;19.80;41.81;101950.06;5013017;28;20601;-75
2022/04/10 10:01:00;;;;;;;1.30;0.43;;;;;;;19.31;42.56;101946.84;5011929;28;19932;-77
2022/04/10 10:03:28;;;;;;;2.03;0.60;;;;;;;19.62;42.66;101953.91;5012453;28;20117;-76
2022/04/10 10:05:55;;;;;;;1.25;0.40;;;;;;;20.01;41.95;101949.31;5012205;28;20033;-76
2022/04/10 10:08:22;;;;;;;2.00;0.70;;;;;;;20.43;39.77;101956.66;5009917;28;20030;-76
2022/04/10 10:10:48;;;;;;;5.18;1.10;;;;;;;19.59;41.59;101942.72;5015413;28;20140;-75
2022/04/10 10:13:14;;;;;;;2.97;0.75;;;;;;;19.49;41.22;101938.47;5010641;28;20496;-75
2022/04/10 10:15:41;;;;;;;3.10;0.75;;;;;;;20.04;41.03;101952.47;4995358;28;20127;-75
2022/04/10 10:18:08;;;;;;;7.47;0.80;;;;;;;19.99;40.25;101967.41;5014891;28;20449;-75
2022/04/10 10:20:36;;;;;;;3.22;0.80;;;;;;;20.38;39.92;101969.78;5009717;28;20029;-74
2022/04/10 10:23:04;;;;;;;2.40;0.60;;;;;;;21.78;38.62;101955.88;5015066;28;20029;-77
2022/04/10 10:25:36;;;;;;;3.55;0.85;;;;;;;22.37;38.93;101970.66;5014015;28;20771;-76
2022/04/10 10:28:09;;;;;;;3.65;0.90;;;;;;;21.95;37.90;101955.56;5015261;28;20393;-75
2022/04/10 10:30:34;;;;;;;2.75;0.80;;;;;;;21.63;37.36;101965.91;5016643;28;20449;-75
2022/04/10 10:33:21;;;;;;;2.75;1.02;;;;;;;21.02;37.71;101957.53;5012864;28;20060;-74
2022/04/10 10:35:58;;;;;;;5.97;1.00;;;;;;;21.11;38.77;101969.78;5001758;28;20472;-75
2022/04/10 10:38:30;;;;;;;4.45;0.90;;;;;;;21.37;38.21;101958.44;5015676;28;20147;-75
2022/04/10 10:41:15;;;;;;;2.58;0.52;;;;;;;21.62;38.59;101968.78;5012983;28;20965;-74
2022/04/10 10:43:41;;;;;;;4.18;0.85;;;;;;;20.91;37.81;101967.75;5016708;28;20033;-75
2022/04/10 10:46:19;;;;;;;4.95;1.00;;;;;;;21.41;38.80;101966.94;4996784;28;20045;-75
2022/04/10 10:48:45;;;;;;;5.18;0.90;;;;;;;20.85;38.25;101971.19;5016324;28;20038;-75
2022/04/10 10:51:10;;;;;;;5.40;0.77;;;;;;;20.64;38.51;101969.28;5011931;28;20352;-75
2022/04/10 10:53:47;;;;;;;3.60;0.93;;;;;;;21.31;38.57;101954.66;5012807;28;20094;-75
2022/04/10 10:56:29;;;;;;;4.53;1.00;;;;;;;21.35;38.03;101964.00;5017101;28;20034;-75
2022/04/10 10:59:26;;;;;;;6.65;1.10;;;;;;;21.99;37.84;101978.31;5017638;28;20029;-75
2022/04/10 11:01:55;;;;;;;4.22;0.80;;;;;;;22.40;37.84;101974.81;5014190;28;20776;-75
2022/04/10 11:04:20;;;;;;;5.07;1.25;;;;;;;22.97;37.75;101970.81;5014989;28;20025;-75
2022/04/10 11:06:50;;;;;;;6.35;1.40;;;;;;;20.71;39.94;101980.13;5015021;28;20100;-74
2022/04/10 11:09:31;;;;;;;3.42;0.85;;;;;;;21.37;38.80;101963.81;5016490;28;20034;-74
2022/04/10 11:12:00;;;;;;;4.22;1.02;;;;;;;20.06;40.21;101974.56;5014244;28;20037;-74
2022/04/10 11:14:40;;;;;;;3.92;0.95;;;;;;;19.65;41.19;101974.94;4999960;28;20087;-76
2022/04/10 11:17:25;;;;;;;6.10;1.10;;;;;;;19.39;41.13;101961.16;5016074;28;20119;-75
2022/04/10 11:20:09;;;;;;;5.03;1.27;;;;;;;19.57;41.51;101940.22;5015250;28;20022;-75
2022/04/10 11:22:39;;;;;;;2.45;0.85;;;;;;;20.60;40.15;101975.22;5015408;28;20030;-75
2022/04/10 11:25:09;;;;;;;7.82;1.15;;;;;;;20.69;39.43;101974.13;5014874;28;20033;-74
2022/04/10 11:27:48;;;;;;;2.83;0.70;;;;;;;21.36;38.67;101976.41;5014552;28;20112;-74
2022/04/10 11:30:20;;;;;;;5.25;1.13;;;;;;;22.09;38.82;101969.88;5012671;28;20025;-74
2022/04/10 11:32:49;;;;;;;5.85;1.65;;;;;;;20.64;39.26;101985.38;5015447;28;20057;-75